Time;durP1;ratioP1;P1;durP2;ratioP2;P2;SDS_P1;SDS_P2;PMS_P1;PMS_P2;Temp;Humidity;BMP_temperature;BMP_pressure;BME280_temperature;BME280_humidity;BME280_pressure;Samples;Min_cycle;Max_cycle;Signal;HPM_P1;HPM_P2
2022/06/25 00:00:02;;;;;;;35.30;26.92;;;17.00;99.90;;;;;;6220803;23;20019;-81
2022/06/25 00:02:28;;;;;;;33.83;26.10;;;16.90;99.90;;;;;;6247121;23;20023;-81
2022/06/25 00:07:38;;;;;;;39.17;26.30;;;16.80;99.90;;;;;;6220423;23;20031;-80
2022/06/25 00:10:04;;;;;;;53.50;29.80;;;16.80;99.90;;;;;;6247267;23;20012;-81
2022/06/25 00:12:32;;;;;;;39.83;27.17;;;16.70;99.90;;;;;;6220061;23;20028;-81
2022/06/25 00:15:00;;;;;;;28.13;21.77;;;16.70;99.90;;;;;;6220266;23;20106;-81
2022/06/25 00:17:26;;;;;;;22.38;19.98;;;16.70;99.90;;;;;;6219723;23;20020;-81
2022/06/25 00:19:51;;;;;;;22.33;20.00;;;16.60;99.90;;;;;;6247452;23;20022;-81
2022/06/25 00:22:17;;;;;;;29.55;22.52;;;16.60;99.90;;;;;;6195572;23;20435;-81
2022/06/25 00:24:43;;;;;;;34.22;23.58;;;16.60;99.90;;;;;;6247055;23;20016;-81
2022/06/25 00:27:08;;;;;;;23.08;19.70;;;16.60;99.90;;;;;;6247046;23;20077;-81
2022/06/25 00:29:34;;;;;;;32.33;23.50;;;16.60;99.90;;;;;;6220574;23;20394;-80
2022/06/25 00:32:00;;;;;;;37.10;26.02;;;16.50;99.90;;;;;;6247002;23;20041;-80
2022/06/25 00:34:28;;;;;;;23.63;18.70;;;16.60;99.90;;;;;;6247022;23;20023;-80
2022/06/25 00:36:54;;;;;;;22.88;19.50;;;16.50;99.90;;;;;;6246987;23;20008;-80
2022/06/25 00:39:20;;;;;;;28.73;21.92;;;16.50;99.90;;;;;;6247001;23;20034;-80
2022/06/25 00:41:45;;;;;;;22.33;19.05;;;16.50;99.90;;;;;;6220048;23;20065;-80
2022/06/25 00:44:11;;;;;;;28.70;22.13;;;16.50;99.90;;;;;;6246982;23;20017;-80
2022/06/25 00:46:37;;;;;;;33.00;22.92;;;16.50;99.90;;;;;;6220237;23;20374;-80
2022/06/25 00:49:03;;;;;;;22.30;18.17;;;16.40;99.90;;;;;;6219597;23;20384;-80
2022/06/25 00:51:32;;;;;;;20.60;17.83;;;16.40;99.90;;;;;;6246857;23;20023;-80
2022/06/25 00:54:04;;;;;;;26.65;20.52;;;16.40;99.90;;;;;;6246918;23;20016;-80
2022/06/25 00:56:35;;;;;;;22.88;18.45;;;16.40;99.90;;;;;;6246626;23;20018;-81
2022/06/25 00:59:04;;;;;;;21.88;17.98;;;16.40;99.90;;;;;;6220093;23;20020;-81
2022/06/25 01:01:33;;;;;;;20.48;18.02;;;16.30;99.90;;;;;;6220103;23;20016;-80
2022/06/25 01:03:58;;;;;;;20.13;17.67;;;16.30;99.90;;;;;;6246381;23;20344;-80
2022/06/25 01:06:24;;;;;;;33.30;21.25;;;16.30;99.90;;;;;;6246564;23;20023;-80
2022/06/25 01:08:50;;;;;;;22.63;18.77;;;16.30;99.90;;;;;;6194970;23;20328;-81
2022/06/25 01:11:16;;;;;;;21.40;18.08;;;16.20;99.90;;;;;;6246613;23;20020;-80
2022/06/25 01:13:42;;;;;;;21.02;18.23;;;16.20;99.90;;;;;;6194484;23;20016;-80
2022/06/25 01:16:07;;;;;;;29.30;20.15;;;16.20;99.90;;;;;;6220163;23;20143;-81
2022/06/25 01:18:33;;;;;;;25.63;19.90;;;16.20;99.90;;;;;;6246658;23;20016;-80
2022/06/25 01:20:59;;;;;;;22.02;17.33;;;16.20;99.90;;;;;;6194443;23;20020;-81
2022/06/25 01:23:25;;;;;;;24.92;20.05;;;16.10;99.90;;;;;;6194291;23;20087;-80
2022/06/25 01:25:52;;;;;;;18.02;15.80;;;16.10;99.90;;;;;;6246561;23;20059;-80
2022/06/25 01:28:18;;;;;;;23.17;18.70;;;16.10;99.90;;;;;;6219447;23;20052;-80
2022/06/25 01:30:43;;;;;;;18.77;14.77;;;16.10;99.90;;;;;;6194547;23;20023;-80
2022/06/25 01:33:09;;;;;;;16.95;15.13;;;16.00;99.90;;;;;;6246535;23;20139;-80
2022/06/25 01:35:35;;;;;;;22.90;16.33;;;16.00;99.90;;;;;;6246344;23;20023;-80
2022/06/25 01:38:02;;;;;;;18.90;15.63;;;16.00;99.90;;;;;;6219654;23;20016;-80
2022/06/25 01:40:28;;;;;;;19.73;14.98;;;15.90;99.90;;;;;;6246249;23;20012;-81
2022/06/25 01:43:01;;;;;;;24.95;18.15;;;15.90;99.90;;;;;;6219815;23;20404;-81
2022/06/25 01:45:28;;;;;;;15.27;13.77;;;15.90;99.90;;;;;;6246487;23;20023;-81
2022/06/25 01:47:54;;;;;;;22.27;16.80;;;16.00;99.90;;;;;;6194526;23;20020;-81
2022/06/25 01:50:20;;;;;;;18.33;14.35;;;15.90;99.90;;;;;;6219681;23;20019;-80
2022/06/25 01:52:46;;;;;;;18.60;12.95;;;16.00;99.90;;;;;;6246515;23;20343;-81
2022/06/25 01:55:13;;;;;;;17.27;14.45;;;15.90;99.90;;;;;;6246107;23;20341;-80
2022/06/25 01:57:39;;;;;;;15.90;14.23;;;16.00;99.90;;;;;;6219992;23;20379;-81
2022/06/25 02:00:10;;;;;;;15.82;14.15;;;16.00;99.90;;;;;;6246431;23;20020;-81
2022/06/25 02:02:37;;;;;;;13.23;11.82;;;16.00;99.90;;;;;;6219212;23;20012;-80
2022/06/25 02:05:06;;;;;;;17.23;14.52;;;15.90;99.90;;;;;;6246275;23;20031;-80
2022/06/25 02:07:32;;;;;;;18.85;15.27;;;16.00;99.90;;;;;;6246268;23;20368;-80
2022/06/25 02:09:57;;;;;;;21.63;16.05;;;15.90;99.90;;;;;;6246090;23;20016;-81
2022/06/25 02:12:23;;;;;;;15.63;14.00;;;15.90;99.90;;;;;;6219151;23;20151;-80
2022/06/25 02:14:49;;;;;;;18.67;15.93;;;15.90;99.90;;;;;;6246002;23;20431;-81
2022/06/25 02:17:15;;;;;;;15.98;14.27;;;15.90;99.90;;;;;;6245355;23;20095;-80
2022/06/25 02:19:40;;;;;;;14.98;13.27;;;15.90;99.90;;;;;;6246127;23;20061;-80
2022/06/25 02:22:06;;;;;;;18.27;15.57;;;15.90;99.90;;;;;;6218956;23;20020;-80
2022/06/25 02:24:32;;;;;;;21.52;18.13;;;15.90;99.90;;;;;;6246095;23;20091;-81
2022/06/25 02:26:58;;;;;;;16.40;14.30;;;15.90;99.90;;;;;;6245876;23;20020;-82
2022/06/25 02:29:24;;;;;;;20.90;17.20;;;15.80;99.90;;;;;;6219524;23;20016;-82
2022/06/25 02:31:50;;;;;;;20.58;17.52;;;15.80;99.90;;;;;;6246100;23;20016;-81
2022/06/25 02:34:15;;;;;;;23.05;17.02;;;15.80;99.90;;;;;;6246485;23;20020;-81
2022/06/25 02:36:41;;;;;;;21.80;15.40;;;15.70;99.90;;;;;;6246012;23;20074;-80
2022/06/25 02:39:07;;;;;;;19.45;16.90;;;15.70;99.90;;;;;;6219323;23;20031;-81
2022/06/25 02:41:32;;;;;;;22.08;15.50;;;15.80;99.90;;;;;;6245975;23;20020;-81
2022/06/25 02:43:58;;;;;;;23.77;16.55;;;15.70;99.90;;;;;;6246053;23;20059;-80
2022/06/25 02:46:23;;;;;;;21.23;17.40;;;15.70;99.90;;;;;;6245917;23;20012;-81
2022/06/25 02:48:49;;;;;;;19.95;16.58;;;15.70;99.90;;;;;;6219305;23;20024;-81
2022/06/25 02:51:15;;;;;;;20.13;16.33;;;15.60;99.90;;;;;;6218716;23;20016;-80
2022/06/25 02:53:40;;;;;;;21.42;17.10;;;15.60;99.90;;;;;;6218910;23;20440;-80
2022/06/25 02:58:55;;;;;;;25.42;20.13;;;15.60;99.90;;;;;;6219010;23;20031;-82
2022/06/25 03:01:22;;;;;;;25.23;18.60;;;15.60;99.90;;;;;;6219084;23;20020;-81
2022/06/25 03:03:48;;;;;;;19.65;17.50;;;15.60;99.90;;;;;;6245813;23;20077;-80
2022/06/25 03:06:13;;;;;;;25.77;18.98;;;15.40;99.90;;;;;;6245231;23;20024;-81
2022/06/25 03:08:39;;;;;;;27.23;19.98;;;15.50;99.90;;;;;;6218546;23;20069;-81
2022/06/25 03:11:05;;;;;;;16.65;14.60;;;15.50;99.90;;;;;;6218595;23;20052;-80
2022/06/25 03:13:34;;;;;;;20.90;18.25;;;15.40;99.90;;;;;;6245413;23;20090;-81
2022/06/25 03:16:00;;;;;;;23.05;18.38;;;15.50;99.90;;;;;;6245655;23;20012;-80
2022/06/25 03:18:26;;;;;;;25.33;18.38;;;15.50;99.90;;;;;;6246002;23;20016;-80
2022/06/25 03:20:52;;;;;;;19.90;16.42;;;15.50;99.90;;;;;;6245832;23;20054;-81
2022/06/25 03:23:19;;;;;;;27.98;19.83;;;15.40;99.90;;;;;;6219012;23;20016;-80
2022/06/25 03:25:45;;;;;;;22.77;17.15;;;15.40;99.90;;;;;;6219197;23;20087;-80
2022/06/25 03:28:12;;;;;;;22.60;16.48;;;15.40;99.90;;;;;;6219078;23;20456;-80
2022/06/25 03:30:37;;;;;;;26.05;18.70;;;15.40;99.90;;;;;;6247582;23;20052;-80
2022/06/25 03:33:03;;;;;;;22.00;17.45;;;15.40;99.90;;;;;;6247804;23;20090;-80
2022/06/25 03:35:30;;;;;;;27.38;18.98;;;15.50;99.90;;;;;;6220920;23;20016;-80
2022/06/25 03:37:56;;;;;;;14.68;12.82;;;15.40;99.90;;;;;;6220748;23;20017;-81
2022/06/25 03:40:22;;;;;;;19.67;16.90;;;15.40;99.90;;;;;;6220740;23;20070;-80
2022/06/25 03:42:48;;;;;;;22.08;17.80;;;15.40;99.90;;;;;;6220818;23;20379;-80
2022/06/25 03:45:14;;;;;;;22.75;17.70;;;15.50;99.90;;;;;;6247588;23;20020;-80
2022/06/25 03:47:40;;;;;;;22.15;18.05;;;15.40;99.90;;;;;;6220556;23;20019;-80
2022/06/25 03:50:06;;;;;;;22.90;17.15;;;15.40;99.90;;;;;;6247745;23;20019;-82
2022/06/25 03:52:32;;;;;;;26.23;17.98;;;15.50;99.90;;;;;;6220772;23;20012;-81
2022/06/25 03:54:57;;;;;;;19.00;16.80;;;15.40;99.90;;;;;;6247317;23;20047;-81
2022/06/25 03:57:24;;;;;;;16.52;14.60;;;15.50;99.90;;;;;;6247456;23;20095;-81
2022/06/25 03:59:50;;;;;;;15.82;12.77;;;15.50;99.90;;;;;;6220694;23;20444;-80
2022/06/25 04:02:16;;;;;;;21.95;16.02;;;15.50;99.90;;;;;;6247456;23;20024;-80
2022/06/25 04:04:42;;;;;;;19.88;15.70;;;15.50;99.90;;;;;;6220151;23;20020;-80
2022/06/25 04:07:08;;;;;;;18.33;15.55;;;15.50;99.90;;;;;;6220606;23;20024;-80
2022/06/25 04:09:33;;;;;;;17.98;16.00;;;15.60;99.90;;;;;;6195339;23;20444;-80
2022/06/25 04:11:59;;;;;;;18.77;15.95;;;15.50;99.90;;;;;;6247331;23;20448;-80
2022/06/25 04:14:25;;;;;;;18.85;16.25;;;15.60;99.90;;;;;;6247291;23;20016;-80
2022/06/25 04:16:50;;;;;;;19.85;15.80;;;15.60;99.90;;;;;;6195499;23;20342;-81
2022/06/25 04:19:16;;;;;;;20.15;16.83;;;15.60;99.90;;;;;;6219873;23;20027;-80
2022/06/25 04:21:47;;;;;;;16.95;14.88;;;15.70;99.90;;;;;;6247294;23;20028;-80
2022/06/25 04:24:15;;;;;;;18.10;14.82;;;15.60;99.90;;;;;;6194681;23;20016;-81
2022/06/25 04:26:41;;;;;;;15.75;14.05;;;15.80;99.90;;;;;;6247036;23;20019;-80
2022/06/25 04:29:08;;;;;;;18.65;14.40;;;15.70;99.90;;;;;;6247151;23;20058;-80
2022/06/25 04:31:36;;;;;;;16.02;13.38;;;15.70;99.90;;;;;;6247054;23;20055;-80
2022/06/25 04:34:03;;;;;;;17.40;13.60;;;15.70;99.90;;;;;;6247090;23;20016;-80
2022/06/25 04:36:28;;;;;;;18.48;14.45;;;15.80;99.90;;;;;;6247056;23;20091;-80
2022/06/25 04:38:55;;;;;;;14.77;13.23;;;15.80;99.90;;;;;;6220094;23;20490;-83
2022/06/25 04:41:20;;;;;;;18.15;14.00;;;15.90;99.90;;;;;;6246660;23;20344;-81
2022/06/25 04:43:49;;;;;;;15.32;11.32;;;15.90;99.90;;;;;;6247437;23;20082;-80
2022/06/25 04:46:15;;;;;;;16.60;12.10;;;15.90;99.90;;;;;;6247296;23;20016;-80
2022/06/25 04:48:40;;;;;;;15.50;13.63;;;15.90;99.90;;;;;;6220284;23;20016;-80
2022/06/25 04:51:06;;;;;;;14.32;12.73;;;16.00;99.90;;;;;;6246861;23;20020;-80
2022/06/25 04:53:32;;;;;;;14.15;11.77;;;16.00;99.90;;;;;;6220198;23;20012;-80
2022/06/25 04:55:58;;;;;;;14.63;11.70;;;16.10;99.90;;;;;;6246651;23;20328;-81
2022/06/25 04:58:23;;;;;;;12.38;10.38;;;16.10;99.90;;;;;;6247124;23;20027;-81
2022/06/25 05:00:49;;;;;;;12.25;10.75;;;16.20;99.90;;;;;;6220129;23;20340;-80
2022/06/25 05:03:15;;;;;;;13.23;10.20;;;16.20;99.90;;;;;;6246726;23;20020;-80
2022/06/25 05:05:41;;;;;;;13.57;10.45;;;16.30;99.90;;;;;;6219604;23;20098;-81
2022/06/25 05:08:06;;;;;;;13.75;11.18;;;16.30;99.90;;;;;;6246873;23;20024;-80
2022/06/25 05:10:33;;;;;;;10.68;9.40;;;16.40;99.90;;;;;;6246273;23;20074;-81
2022/06/25 05:13:14;;;;;;;12.43;10.05;;;16.40;99.90;;;;;;6246678;23;20020;-81
2022/06/25 05:15:41;;;;;;;13.80;10.85;;;16.50;99.90;;;;;;6219849;23;20016;-80
2022/06/25 05:18:11;;;;;;;11.57;10.00;;;16.50;99.90;;;;;;6246621;23;20091;-81
2022/06/25 05:20:41;;;;;;;14.52;10.52;;;16.60;99.90;;;;;;6220009;23;20055;-81
2022/06/25 05:23:08;;;;;;;15.48;11.32;;;16.60;99.90;;;;;;6246502;23;20313;-81
2022/06/25 05:25:34;;;;;;;9.80;8.88;;;16.70;99.90;;;;;;6220376;23;20340;-81
2022/06/25 05:28:00;;;;;;;11.98;10.25;;;16.80;99.90;;;;;;6219725;23;20016;-81
2022/06/25 05:30:25;;;;;;;9.43;8.52;;;16.80;99.90;;;;;;6220069;23;20081;-81
2022/06/25 05:32:51;;;;;;;9.10;8.02;;;16.90;99.90;;;;;;6246458;23;20102;-81
2022/06/25 05:35:17;;;;;;;9.90;8.68;;;16.90;99.90;;;;;;6246446;23;20095;-81
2022/06/25 05:37:43;;;;;;;11.98;8.25;;;17.00;99.90;;;;;;6219803;23;20459;-82
2022/06/25 05:40:09;;;;;;;10.07;8.32;;;17.10;99.90;;;;;;6219555;23;20404;-81
2022/06/25 05:42:36;;;;;;;10.48;8.20;;;17.10;99.90;;;;;;6219289;23;20023;-81
2022/06/25 05:45:03;;;;;;;11.18;7.63;;;17.10;99.90;;;;;;6219659;23;20016;-81
2022/06/25 05:47:29;;;;;;;11.13;10.13;;;17.30;99.90;;;;;;6246153;23;20098;-81
2022/06/25 05:49:55;;;;;;;9.32;8.23;;;17.40;99.90;;;;;;6194570;23;20483;-80
2022/06/25 05:52:21;;;;;;;11.70;6.82;;;17.50;99.90;;;;;;6246366;23;20016;-81
2022/06/25 05:54:46;;;;;;;7.32;6.50;;;17.60;99.90;;;;;;6246127;23;20027;-81
2022/06/25 05:57:12;;;;;;;9.85;6.40;;;17.70;99.90;;;;;;6219444;23;20107;-81
2022/06/25 05:59:38;;;;;;;8.02;6.40;;;17.80;99.90;;;;;;6246203;23;20020;-85
2022/06/25 06:02:04;;;;;;;6.90;6.07;;;17.80;99.90;;;;;;6219671;23;20082;-82
2022/06/25 06:04:29;;;;;;;10.52;6.60;;;17.80;99.90;;;;;;6245944;23;20024;-82
2022/06/25 06:06:55;;;;;;;8.35;5.47;;;17.80;99.90;;;;;;6218836;23;20023;-82
2022/06/25 06:09:20;;;;;;;8.90;5.57;;;17.90;99.90;;;;;;6245762;23;20027;-81
2022/06/25 06:11:46;;;;;;;6.90;5.07;;;18.00;99.90;;;;;;6218902;23;20017;-81
2022/06/25 06:14:12;;;;;;;6.72;5.10;;;18.20;99.90;;;;;;6193950;23;20024;-82
2022/06/25 06:16:38;;;;;;;9.10;5.50;;;18.20;99.90;;;;;;6218805;23;20012;-81
2022/06/25 06:19:03;;;;;;;9.50;5.40;;;18.30;99.90;;;;;;6219483;23;20043;-81
2022/06/25 06:21:29;;;;;;;6.47;4.90;;;18.40;99.90;;;;;;6246348;23;20016;-82
2022/06/25 06:23:55;;;;;;;5.95;4.55;;;18.50;99.90;;;;;;6219370;23;20399;-81
2022/06/25 06:26:20;;;;;;;7.85;4.68;;;18.60;99.90;;;;;;6246049;23;20051;-82
2022/06/25 06:28:46;;;;;;;8.02;4.20;;;18.80;99.90;;;;;;6246774;23;20016;-82
2022/06/25 06:31:12;;;;;;;9.40;4.95;;;18.80;99.90;;;;;;6219607;23;20022;-81
2022/06/25 06:33:37;;;;;;;6.63;4.13;;;18.90;99.90;;;;;;6219251;23;20463;-81
2022/06/25 06:36:06;;;;;;;7.10;3.80;;;19.00;99.90;;;;;;6193900;23;20387;-83
2022/06/25 06:38:31;;;;;;;5.72;3.53;;;19.10;99.90;;;;;;6194218;23;20398;-82
2022/06/25 06:40:57;;;;;;;5.65;3.63;;;19.30;99.90;;;;;;6193927;23;20024;-82
2022/06/25 06:43:23;;;;;;;8.82;3.55;;;19.40;99.90;;;;;;6194232;23;20012;-82
2022/06/25 06:45:48;;;;;;;8.02;3.35;;;19.60;99.90;;;;;;6219591;23;20066;-83
2022/06/25 06:48:14;;;;;;;4.70;3.03;;;19.90;99.90;;;;;;6246063;23;20078;-82
2022/06/25 06:50:40;;;;;;;5.15;3.00;;;20.30;99.90;;;;;;6246388;23;20051;-82
2022/06/25 06:53:05;;;;;;;4.50;2.95;;;20.90;99.90;;;;;;6246224;23;20020;-82
2022/06/25 06:55:31;;;;;;;6.65;3.50;;;21.40;99.90;;;;;;6245578;23;20016;-83
2022/06/25 06:57:56;;;;;;;3.80;2.97;;;21.80;99.90;;;;;;6246168;23;20087;-83
2022/06/25 07:00:22;;;;;;;5.60;2.83;;;22.10;99.90;;;;;;6246210;23;20020;-84
2022/06/25 07:02:48;;;;;;;5.88;2.70;;;22.20;99.90;;;;;;6219372;23;20393;-83
2022/06/25 07:05:13;;;;;;;6.97;2.55;;;22.30;99.90;;;;;;6221497;23;20336;-83
2022/06/25 07:07:39;;;;;;;4.93;2.60;;;22.30;99.90;;;;;;6247965;23;20016;-83
2022/06/25 07:10:05;;;;;;;5.22;2.53;;;22.40;99.90;;;;;;6247516;23;20371;-84
2022/06/25 07:12:31;;;;;;;7.93;2.40;;;22.80;99.90;;;;;;6220513;23;20086;-83
2022/06/25 07:14:57;;;;;;;3.55;2.30;;;23.20;99.90;;;;;;6220895;23;20047;-84
2022/06/25 07:17:23;;;;;;;4.63;2.30;;;23.50;99.90;;;;;;6221017;23;20090;-83
2022/06/25 07:19:48;;;;;;;3.78;2.10;;;23.70;99.90;;;;;;6194839;23;20095;-83
2022/06/25 07:22:14;;;;;;;3.35;1.90;;;23.80;99.90;;;;;;6195048;23;20024;-85
2022/06/25 07:24:42;;;;;;;3.63;2.22;;;24.00;99.90;;;;;;6220966;23;20016;-83
2022/06/25 07:27:07;;;;;;;4.95;1.90;;;24.30;99.90;;;;;;6247670;23;20012;-85
2022/06/25 07:29:36;;;;;;;4.28;1.95;;;24.50;99.90;;;;;;6247662;23;20340;-84
2022/06/25 07:32:02;;;;;;;5.40;1.70;;;24.80;99.90;;;;;;6247361;23;20023;-85
2022/06/25 07:34:27;;;;;;;2.70;1.58;;;25.10;99.90;;;;;;6220162;23;20332;-83
2022/06/25 07:36:53;;;;;;;3.85;1.63;;;25.30;99.90;;;;;;6247509;23;20012;-83
2022/06/25 07:39:18;;;;;;;5.68;1.40;;;25.60;99.90;;;;;;6247612;23;20321;-84
2022/06/25 07:41:44;;;;;;;2.42;1.52;;;25.90;99.90;;;;;;6247429;23;20024;-84
2022/06/25 07:44:11;;;;;;;4.85;1.80;;;26.30;99.90;;;;;;6220857;23;20018;-83
2022/06/25 07:46:37;;;;;;;3.70;1.83;;;26.60;99.90;;;;;;6247603;23;20336;-83
2022/06/25 07:49:03;;;;;;;2.95;1.23;;;26.90;99.90;;;;;;6247511;23;20008;-85
2022/06/25 07:54:13;;;;;;;2.85;1.40;;;27.40;98.90;;;;;;6220644;23;20095;-85
2022/06/25 07:56:38;;;;;;;6.00;1.67;;;27.50;97.00;;;;;;6247547;22;20060;-84
2022/06/25 07:59:04;;;;;;;2.35;1.50;;;27.30;95.60;;;;;;6221165;23;20027;-84
2022/06/25 08:01:30;;;;;;;4.60;1.48;;;27.70;95.80;;;;;;6222053;23;20012;-84
2022/06/25 08:03:56;;;;;;;3.33;1.45;;;28.20;91.90;;;;;;6247779;23;20070;-84
2022/06/25 08:06:21;;;;;;;6.75;1.60;;;28.80;90.60;;;;;;6220687;23;20020;-83
2022/06/25 08:08:47;;;;;;;5.22;1.40;;;29.10;80.80;;;;;;6247882;23;20016;-83
2022/06/25 08:11:13;;;;;;;2.92;1.40;;;29.20;77.40;;;;;;6194832;23;20522;-84
2022/06/25 08:13:38;;;;;;;3.33;1.40;;;29.20;78.80;;;;;;6220623;23;20020;-85
2022/06/25 08:16:09;;;;;;;4.35;1.10;;;29.20;73.30;;;;;;6220209;23;20392;-82
2022/06/25 08:18:36;;;;;;;3.45;1.40;;;28.50;78.30;;;;;;6220450;23;20339;-83
2022/06/25 08:21:02;;;;;;;3.17;1.40;;;27.50;88.50;;;;;;6247318;23;20078;-84
2022/06/25 08:23:28;;;;;;;1.38;1.27;;;27.00;91.80;;;;;;6247250;23;20008;-84
2022/06/25 08:25:54;;;;;;;3.80;1.60;;;26.90;94.10;;;;;;6220386;23;20451;-83
2022/06/25 08:28:20;;;;;;;3.30;1.50;;;27.10;92.10;;;;;;6194704;23;20016;-84
2022/06/25 08:30:46;;;;;;;7.47;1.40;;;26.70;95.30;;;;;;6220282;23;20020;-83
2022/06/25 08:33:12;;;;;;;2.67;1.40;;;26.20;97.00;;;;;;6220262;23;20074;-83
2022/06/25 08:35:37;;;;;;;6.00;1.58;;;26.20;96.40;;;;;;6194649;23;20079;-83
2022/06/25 08:38:04;;;;;;;2.30;1.40;;;26.50;95.40;;;;;;6247021;23;20027;-83
2022/06/25 08:40:32;;;;;;;4.88;2.00;;;27.20;94.40;;;;;;6220122;23;20016;-83
2022/06/25 08:42:59;;;;;;;3.50;1.50;;;28.20;80.70;;;;;;6247088;23;20065;-83
2022/06/25 08:45:25;;;;;;;4.00;1.23;;;28.60;87.20;;;;;;6220352;23;20027;-83
2022/06/25 08:47:52;;;;;;;2.25;1.33;;;28.40;81.00;;;;;;6246978;23;20035;-85
2022/06/25 08:50:21;;;;;;;3.00;1.33;;;27.80;83.90;;;;;;6247144;23;20090;-83
2022/06/25 08:52:51;;;;;;;3.38;1.30;;;27.90;82.30;;;;;;6246915;23;20070;-83
2022/06/25 08:55:31;;;;;;;5.18;1.45;;;27.70;82.60;;;;;;6220017;23;20055;-84
2022/06/25 08:57:57;;;;;;;3.07;1.27;;;27.40;85.30;;;;;;6219905;23;20087;-83
2022/06/25 09:00:24;;;;;;;3.20;1.30;;;27.90;84.10;;;;;;6246806;23;20016;-83
2022/06/25 09:02:53;;;;;;;2.90;1.50;;;28.60;75.60;;;;;;6246414;23;20462;-84
2022/06/25 09:05:36;;;;;;;3.28;1.45;;;29.00;70.80;;;;;;6195070;23;20021;-84
2022/06/25 09:08:05;;;;;;;3.10;1.30;;;28.60;73.20;;;;;;6246971;23;20463;-83
2022/06/25 09:10:31;;;;;;;2.60;1.30;;;28.80;71.00;;;;;;6220453;23;20016;-83
2022/06/25 09:12:59;;;;;;;10.10;1.48;;;28.40;79.80;;;;;;6220086;23;20017;-83
2022/06/25 09:15:29;;;;;;;2.70;1.02;;;27.70;83.70;;;;;;6246534;23;20432;-83
2022/06/25 09:17:55;;;;;;;9.68;1.30;;;27.40;82.90;;;;;;6246931;23;20395;-83
2022/06/25 09:20:22;;;;;;;4.03;1.23;;;27.30;88.90;;;;;;6194852;23;20432;-83
2022/06/25 09:22:57;;;;;;;3.45;1.20;;;27.40;91.90;;;;;;6247136;23;20435;-83
2022/06/25 09:25:28;;;;;;;2.70;1.23;;;28.10;87.70;;;;;;6219510;23;20023;-82
2022/06/25 09:27:54;;;;;;;2.00;1.02;;;29.10;76.60;;;;;;6220390;23;20023;-82
2022/06/25 09:30:22;;;;;;;2.88;1.42;;;30.10;67.80;;;;;;6195068;23;20024;-82
2022/06/25 09:32:50;;;;;;;2.08;1.10;;;30.60;62.40;;;;;;6247126;23;20482;-84
2022/06/25 09:35:39;;;;;;;1.20;1.05;;;30.90;61.50;;;;;;6221052;23;20012;-84
2022/06/25 09:38:16;;;;;;;2.70;1.10;;;31.40;61.00;;;;;;6246802;23;20340;-84
2022/06/25 09:40:59;;;;;;;2.20;1.10;;;31.70;60.90;;;;;;6246687;23;20035;-83
2022/06/25 09:43:27;;;;;;;2.13;0.93;;;32.40;55.80;;;;;;6219915;23;20082;-83
2022/06/25 09:45:55;;;;;;;2.78;1.17;;;32.80;55.90;;;;;;6219842;23;20023;-82
2022/06/25 09:48:28;;;;;;;2.70;0.88;;;33.10;53.80;;;;;;6220306;23;20321;-83
2022/06/25 09:51:29;;;;;;;2.42;0.90;;;33.10;53.10;;;;;;6247058;23;20095;-82
2022/06/25 09:54:00;;;;;;;1.95;0.90;;;32.90;51.20;;;;;;6246637;23;20028;-83
2022/06/25 09:56:33;;;;;;;1.83;0.82;;;32.80;52.10;;;;;;6219987;23;20016;-82
2022/06/25 09:59:00;;;;;;;2.80;0.95;;;32.90;52.00;;;;;;6246764;23;20016;-83
2022/06/25 10:01:31;;;;;;;3.75;1.00;;;32.90;50.70;;;;;;6246772;23;20107;-83
2022/06/25 10:04:01;;;;;;;2.40;1.00;;;33.10;51.20;;;;;;6219629;23;20016;-83
2022/06/25 10:06:32;;;;;;;3.63;0.90;;;32.90;50.20;;;;;;6246577;23;20066;-83
2022/06/25 10:09:02;;;;;;;2.35;1.10;;;32.30;54.00;;;;;;6219919;23;20073;-83
2022/06/25 10:11:30;;;;;;;2.85;1.00;;;31.90;52.70;;;;;;6247389;23;20074;-85
2022/06/25 10:13:56;;;;;;;2.15;0.90;;;31.50;54.90;;;;;;6220183;23;20016;-84
2022/06/25 10:16:24;;;;;;;2.63;1.13;;;31.20;56.20;;;;;;6246386;23;20332;-83
2022/06/25 10:18:51;;;;;;;3.97;1.30;;;30.50;56.00;;;;;;6246157;23;20062;-83
2022/06/25 10:21:23;;;;;;;1.98;1.10;;;30.40;56.40;;;;;;6219431;23;20360;-84
2022/06/25 10:23:54;;;;;;;2.92;1.10;;;31.20;53.00;;;;;;6219660;23;20473;-83
2022/06/25 10:26:21;;;;;;;3.20;1.10;;;31.50;53.10;;;;;;6246234;23;20016;-83
2022/06/25 10:28:47;;;;;;;4.03;0.90;;;31.80;53.40;;;;;;6194630;23;20023;-82
2022/06/25 10:31:16;;;;;;;5.75;1.00;;;32.20;53.00;;;;;;6218838;23;20151;-84
2022/06/25 10:34:04;;;;;;;3.42;1.05;;;32.60;52.20;;;;;;6246440;23;20016;-84
2022/06/25 10:36:43;;;;;;;2.75;1.00;;;33.30;50.40;;;;;;6219288;23;20110;-82
2022/06/25 10:39:27;;;;;;;3.58;1.30;;;33.90;49.70;;;;;;6220633;23;20020;-82
2022/06/25 10:45:04;;;;;;;1.10;0.80;;;33.30;48.80;;;;;;6248228;23;20098;-82
2022/06/25 10:47:49;;;;;;;2.08;1.00;;;32.00;50.80;;;;;;6221266;23;20103;-83
2022/06/25 10:50:21;;;;;;;2.70;0.88;;;30.90;53.50;;;;;;6221383;23;20099;-82
2022/06/25 10:53:02;;;;;;;2.45;0.93;;;30.00;55.90;;;;;;6247988;23;20031;-83
2022/06/25 10:55:28;;;;;;;4.20;1.00;;;29.10;58.00;;;;;;6248175;23;20016;-82
2022/06/25 10:58:11;;;;;;;2.83;0.80;;;28.80;60.80;;;;;;6248365;23;20020;-83
2022/06/25 11:00:48;;;;;;;3.45;1.10;;;28.80;58.80;;;;;;6248109;23;20024;-82
2022/06/25 11:03:34;;;;;;;1.73;0.93;;;29.40;61.60;;;;;;6247871;23;20051;-83
2022/06/25 11:06:16;;;;;;;2.60;0.85;;;29.90;60.30;;;;;;6125409;23;20108;-83
2022/06/25 11:08:43;;;;;;;3.35;1.15;;;29.50;59.30;;;;;;6077510;23;20454;-83
2022/06/25 11:11:10;;;;;;;3.05;0.98;;;28.80;60.10;;;;;;6101173;23;20021;-82
2022/06/25 11:13:39;;;;;;;3.85;0.80;;;28.20;63.20;;;;;;6125563;23;20021;-82
2022/06/25 11:16:15;;;;;;;2.70;0.77;;;27.70;63.50;;;;;;6100715;23;20026;-83
2022/06/25 11:18:47;;;;;;;2.20;0.82;;;27.20;65.00;;;;;;6077278;23;20021;-83
2022/06/25 11:21:28;;;;;;;1.35;0.80;;;26.80;77.10;;;;;;6100966;23;20017;-84
2022/06/25 11:24:04;;;;;;;;;;;26.70;84.70;;;;;;6125829;23;20099;-83
2022/06/25 11:29:21;;;;;;;6.43;1.17;;;26.80;77.10;;;;;;6101534;23;20029;-82
2022/06/25 11:31:49;;;;;;;4.10;1.00;;;26.80;86.60;;;;;;6125289;23;20018;-82
2022/06/25 11:34:23;;;;;;;2.70;1.02;;;26.80;83.20;;;;;;6100301;23;20029;-82
2022/06/25 11:37:05;;;;;;;1.85;0.95;;;26.70;84.30;;;;;;6124828;23;20018;-83
2022/06/25 11:39:32;;;;;;;1.45;0.90;;;26.40;81.50;;;;;;6125590;23;20053;-82
2022/06/25 11:41:58;;;;;;;3.70;0.98;;;26.20;88.20;;;;;;6081216;23;20030;-82
2022/06/25 11:44:24;;;;;;;3.90;1.25;;;26.20;90.40;;;;;;6220715;23;20055;-81
2022/06/25 11:46:51;;;;;;;3.30;1.17;;;26.30;92.50;;;;;;6247539;23;20024;-82
2022/06/25 11:49:20;;;;;;;2.75;1.30;;;26.40;93.30;;;;;;6220639;23;20086;-82
2022/06/25 11:51:51;;;;;;;2.97;1.13;;;26.70;94.10;;;;;;6247480;23;20020;-82
2022/06/25 11:54:21;;;;;;;2.60;1.10;;;27.00;92.10;;;;;;6220746;23;20012;-81
2022/06/25 11:56:52;;;;;;;2.97;1.15;;;26.90;93.30;;;;;;6220487;23;20095;-82
2022/06/25 11:59:24;;;;;;;2.60;1.08;;;26.60;95.40;;;;;;6247451;23;20471;-82
2022/06/25 12:01:50;;;;;;;7.88;1.42;;;26.20;95.60;;;;;;6220493;23;20474;-81
2022/06/25 12:04:17;;;;;;;8.10;1.48;;;25.90;97.30;;;;;;6195824;23;20020;-82
2022/06/25 12:06:44;;;;;;;5.53;1.20;;;25.50;99.90;;;;;;6247696;23;20328;-82
2022/06/25 12:09:09;;;;;;;3.25;1.33;;;25.10;99.90;;;;;;6248031;23;20091;-81
2022/06/25 12:11:35;;;;;;;3.42;1.23;;;24.90;99.90;;;;;;6221015;23;20364;-82
2022/06/25 12:14:02;;;;;;;4.18;1.30;;;24.80;99.90;;;;;;6247329;23;20340;-81
2022/06/25 12:16:42;;;;;;;4.28;1.40;;;24.90;99.90;;;;;;6247166;23;20009;-83
2022/06/25 12:19:08;;;;;;;2.53;1.27;;;24.90;99.90;;;;;;6247490;23;20020;-82
2022/06/25 12:21:35;;;;;;;4.88;1.05;;;25.00;99.90;;;;;;6220376;23;20028;-83
2022/06/25 12:24:03;;;;;;;3.50;1.42;;;25.00;99.90;;;;;;6247296;23;20087;-84
2022/06/25 12:26:33;;;;;;;2.17;1.95;;;25.10;99.90;;;;;;6220461;23;20016;-83
2022/06/25 12:29:12;;;;;;;2.60;1.50;;;25.40;99.90;;;;;;6219770;23;20165;-83
2022/06/25 12:31:49;;;;;;;3.67;1.38;;;25.60;99.90;;;;;;6220305;23;20351;-84
2022/06/25 12:34:15;;;;;;;2.55;1.10;;;25.60;99.90;;;;;;6220851;23;20016;-83
2022/06/25 12:36:41;;;;;;;6.35;1.30;;;25.40;99.90;;;;;;6220335;23;20442;-83
2022/06/25 12:39:37;;;;;;;2.35;0.90;;;25.20;99.90;;;;;;6247079;23;20016;-82
2022/06/25 12:42:08;;;;;;;3.03;1.10;;;25.10;99.90;;;;;;6247020;23;20016;-83
2022/06/25 12:44:36;;;;;;;2.28;1.20;;;25.00;99.90;;;;;;6220440;23;20024;-81
2022/06/25 12:47:07;;;;;;;16.55;1.75;;;24.90;99.90;;;;;;6220351;23;20016;-84
2022/06/25 12:49:46;;;;;;;2.42;1.10;;;24.80;99.90;;;;;;6220741;23;20012;-83
2022/06/25 12:52:14;;;;;;;2.50;1.35;;;24.60;99.90;;;;;;6247377;23;20048;-82
2022/06/25 12:54:45;;;;;;;2.28;1.20;;;24.50;99.90;;;;;;6247302;23;20012;-83